createdAt,value
2022-08-20T06:51:14.642Z,20.70
2022-08-20T07:18:36.522Z,20.40
2022-08-20T07:21:12.028Z,21.30
2022-08-20T07:27:07.540Z,22.20
2022-08-20T07:27:30.546Z,20.10
2022-08-20T07:29:37.785Z,21.90
2022-08-20T07:32:21.913Z,21.50
2022-08-20T10:03:22.128Z,24.60
2022-08-20T10:06:00.764Z,24.10
2022-08-20T10:08:41.752Z,24.00
2022-08-20T10:11:12.016Z,24.30
2022-08-20T10:14:01.449Z,24.60
2022-08-20T10:16:45.548Z,24.70
2022-08-20T10:19:23.628Z,24.20
2022-08-20T10:22:14.132Z,24.30
2022-08-20T10:27:40.506Z,24.40
2022-08-20T10:30:07.844Z,24.70
2022-08-20T10:32:39.047Z,25.00
2022-08-20T10:35:10.686Z,25.00
2022-08-20T10:44:04.975Z,24.20
2022-08-20T10:46:50.397Z,24.50
2022-08-20T10:52:53.365Z,24.30
2022-08-20T11:01:05.821Z,24.40
2022-08-20T11:04:09.880Z,24.20
2022-08-20T11:06:45.849Z,24.00
2022-08-20T11:09:39.707Z,23.90
2022-08-20T11:12:12.662Z,24.20
2022-08-20T11:14:57.482Z,24.50
2022-08-20T11:17:28.745Z,24.30
2022-08-20T11:19:57.238Z,24.10
2022-08-20T11:23:08.663Z,24.00
2022-08-20T11:25:37.553Z,24.10
2022-08-20T11:28:16.629Z,24.40
2022-08-20T11:30:58.764Z,24.80
2022-08-20T11:33:46.500Z,25.10
2022-08-20T11:36:13.406Z,25.00
2022-08-20T11:38:40.428Z,24.80
2022-08-20T11:41:07.153Z,24.90
2022-08-20T11:46:28.353Z,25.10
2022-08-20T11:52:06.614Z,25.30
2022-08-20T11:54:54.397Z,25.40
2022-08-20T11:57:27.192Z,25.40
2022-08-20T13:56:20.432Z,25.60
2022-08-20T13:58:58.880Z,25.60
2022-08-20T14:01:25.628Z,25.70
2022-08-20T14:03:58.715Z,25.80
2022-08-20T14:06:26.773Z,25.90
2022-08-20T14:09:08.537Z,25.70
2022-08-20T14:12:01.246Z,25.50
2022-08-20T14:18:00.372Z,25.60
2022-08-20T14:23:54.658Z,25.80
2022-08-20T14:26:33.809Z,25.80
2022-08-20T14:29:00.554Z,25.60
2022-08-20T14:31:33.422Z,25.30
2022-08-20T14:34:00.381Z,25.30
2022-08-20T14:36:42.564Z,25.40
2022-08-20T14:41:53.172Z,25.20
2022-08-20T14:44:19.892Z,25.00
2022-08-20T14:53:57.498Z,24.40
2022-08-20T14:56:24.295Z,24.40
2022-08-20T14:59:03.093Z,24.50
2022-08-20T15:01:29.855Z,24.40
2022-08-20T15:04:18.135Z,24.20
2022-08-20T15:06:51.006Z,24.30
2022-08-20T15:09:34.781Z,24.30
2022-08-20T15:12:01.714Z,24.20
2022-08-20T15:14:34.571Z,24.10
2022-08-20T15:17:06.193Z,24.00
2022-08-20T15:19:45.559Z,24.00
2022-08-20T15:22:12.329Z,23.90
2022-08-20T15:24:55.471Z,23.80
2022-08-20T15:27:25.816Z,23.70
2022-08-20T15:30:40.789Z,23.70
2022-08-20T15:33:09.040Z,23.60
2022-08-20T15:35:41.922Z,23.70
2022-08-20T15:38:08.878Z,23.70
2022-08-20T15:40:36.227Z,23.60
2022-08-20T15:43:05.172Z,23.40
2022-08-20T15:45:51.260Z,23.50
2022-08-20T15:48:36.706Z,23.60
2022-08-20T15:51:30.697Z,23.70
2022-08-20T15:54:19.522Z,23.70
2022-08-20T16:00:34.882Z,23.90
2022-08-20T16:03:39.484Z,23.90
2022-08-20T16:06:25.614Z,23.70
2022-08-20T16:18:22.443Z,23.40
2022-08-20T16:21:18.901Z,23.30
2022-08-20T16:23:44.782Z,23.30
2022-08-20T16:26:48.679Z,23.40
2022-08-20T16:32:38.115Z,23.50
2022-08-20T16:35:19.101Z,23.60
2022-08-20T16:38:07.877Z,23.60
2022-08-20T16:41:02.915Z,23.50
2022-08-20T16:43:34.886Z,23.40
2022-08-20T16:46:42.216Z,23.40
2022-08-20T16:49:15.567Z,23.30
2022-08-20T16:52:01.180Z,23.30
2022-08-20T16:54:33.852Z,23.30
2022-08-20T16:57:24.138Z,23.30
2022-08-20T17:00:44.874Z,23.30
2022-08-20T17:03:39.635Z,23.30
2022-08-20T17:06:39.918Z,23.10
2022-08-20T17:09:34.207Z,23.00
2022-08-20T17:12:28.028Z,23.00
2022-08-20T17:15:04.488Z,22.90
2022-08-20T17:17:37.065Z,23.10
2022-08-20T17:23:12.722Z,24.00
2022-08-20T17:29:15.539Z,23.50
2022-08-20T17:31:53.192Z,23.00
2022-08-20T17:34:32.055Z,22.80
2022-08-20T17:37:10.943Z,22.70
2022-08-20T17:42:27.825Z,22.40
2022-08-20T17:45:19.511Z,22.30
2022-08-20T17:47:59.908Z,22.30
2022-08-20T17:56:44.765Z,21.90
2022-08-20T17:59:59.912Z,21.80
2022-08-20T18:02:21.524Z,21.60
2022-08-20T18:05:00.819Z,21.50
2022-08-20T18:07:51.247Z,21.40
2022-08-20T18:10:26.833Z,21.40
2022-08-20T18:19:46.066Z,21.20
2022-08-20T18:22:55.718Z,21.10
2022-08-20T18:25:54.043Z,21.00
2022-08-20T18:28:38.681Z,20.90
2022-08-20T18:31:50.112Z,20.80
2022-08-20T18:34:46.610Z,20.80
2022-08-20T18:37:37.646Z,20.70
2022-08-20T18:40:26.655Z,20.60
2022-08-20T18:53:51.858Z,20.20
2022-08-20T18:59:19.539Z,20.10
2022-08-20T19:01:48.616Z,20.00
2022-08-20T19:04:40.259Z,20.00
2022-08-20T19:07:23.573Z,19.90
2022-08-20T19:13:07.971Z,19.80
2022-08-20T19:15:45.083Z,19.70
2022-08-20T19:18:27.441Z,19.60
2022-08-20T19:20:59.788Z,19.60
2022-08-20T19:23:36.159Z,19.50
2022-08-20T19:26:25.830Z,19.40
2022-08-20T19:29:12.058Z,19.40
2022-08-20T19:31:39.539Z,19.30
2022-08-20T19:34:44.369Z,19.30
2022-08-20T19:40:38.145Z,19.10
2022-08-20T19:43:18.638Z,19.10
2022-08-20T19:52:31.510Z,18.90
2022-08-20T20:02:19.902Z,18.70
2022-08-20T20:04:55.463Z,18.60
2022-08-20T20:07:48.037Z,18.60
2022-08-20T20:10:41.244Z,18.50
2022-08-20T20:13:24.833Z,18.40
2022-08-20T20:16:10.791Z,18.40
2022-08-20T20:19:22.677Z,18.30
2022-08-20T20:22:08.536Z,18.30
2022-08-20T20:24:50.283Z,18.20
2022-08-20T20:30:35.511Z,18.10
2022-08-20T20:33:30.677Z,18.00
2022-08-20T20:41:55.315Z,17.90
2022-08-20T20:44:26.872Z,17.80
2022-08-20T20:47:20.823Z,17.80
2022-08-20T20:50:09.225Z,17.70
2022-08-20T20:53:04.905Z,17.70
2022-08-20T20:58:54.385Z,17.60
2022-08-20T21:01:45.581Z,17.60
2022-08-20T21:07:11.970Z,17.50
2022-08-20T21:12:41.244Z,17.40
2022-08-20T21:15:09.195Z,17.40
2022-08-20T21:17:59.075Z,17.30
2022-08-20T21:20:26.118Z,17.20
2022-08-20T21:23:18.521Z,17.20
2022-08-20T21:25:45.417Z,17.10
2022-08-20T21:28:28.516Z,17.10
2022-08-20T21:31:14.805Z,17.00
2022-08-20T21:33:41.632Z,16.90
2022-08-20T21:36:17.524Z,16.90
2022-08-20T21:38:44.284Z,16.80
2022-08-20T21:41:10.921Z,16.80
2022-08-20T21:43:56.080Z,16.80
2022-08-20T21:46:32.523Z,16.70
2022-08-20T21:49:08.002Z,16.70
2022-08-20T21:51:47.784Z,16.70
2022-08-20T21:54:15.025Z,16.70
2022-08-20T21:56:42.547Z,16.60
2022-08-20T21:59:13.401Z,16.60
2022-08-20T22:01:42.977Z,16.50
2022-08-20T22:04:10.518Z,16.50
2022-08-20T22:06:56.919Z,16.50
2022-08-20T22:09:23.730Z,16.50
2022-08-20T22:11:55.167Z,16.40
2022-08-20T22:14:23.192Z,16.40
2022-08-20T22:16:50.492Z,16.40
2022-08-20T22:19:32.731Z,16.30
2022-08-20T22:21:59.628Z,16.30
2022-08-20T22:24:28.876Z,16.30
2022-08-20T22:27:06.146Z,16.30
2022-08-20T22:29:33.066Z,16.20
2022-08-20T22:32:00.243Z,16.20
2022-08-20T22:34:48.209Z,16.20
2022-08-20T22:37:15.669Z,16.20
2022-08-20T22:39:42.702Z,16.20
2022-08-20T22:42:21.880Z,16.20
2022-08-20T22:44:51.355Z,16.20
2022-08-20T22:50:04.440Z,16.10
2022-08-20T22:52:32.164Z,16.10
2022-08-20T22:55:21.489Z,16.10
2022-08-20T22:57:46.909Z,16.00
2022-08-20T23:00:26.170Z,16.00
2022-08-20T23:02:57.492Z,16.00
2022-08-20T23:05:27.076Z,15.90
2022-08-20T23:08:07.516Z,15.90
2022-08-20T23:10:35.704Z,15.90
2022-08-20T23:13:02.393Z,15.90
2022-08-20T23:15:33.499Z,15.80
2022-08-20T23:18:09.183Z,15.80
2022-08-20T23:20:36.022Z,15.80
2022-08-20T23:25:43.446Z,15.70
2022-08-20T23:28:10.235Z,15.70
2022-08-20T23:30:37.015Z,15.70
2022-08-20T23:33:11.928Z,15.70
2022-08-20T23:35:40.204Z,15.70
2022-08-20T23:38:07.540Z,15.70
2022-08-20T23:40:35.032Z,15.70
2022-08-20T23:43:10.407Z,15.70
2022-08-20T23:45:39.767Z,15.70
2022-08-20T23:48:07.859Z,15.70
2022-08-20T23:50:35.410Z,15.70
2022-08-20T23:53:08.004Z,15.70
2022-08-20T23:55:35.033Z,15.70
2022-08-20T23:58:01.677Z,15.70
